Time;durP1;ratioP1;P1;durP2;ratioP2;P2;SDS_P1;SDS_P2;PMS_P1;PMS_P2;Temp;Humidity;BMP_temperature;BMP_pressure;BME280_temperature;BME280_humidity;BME280_pressure;Samples;Min_cycle;Max_cycle;Signal;HPM_P1;HPM_P2
2022/08/08 00:01:15;;;;;;;;;;;;;;;25.79;38.58;100114.22;4292452;33;20001;-81
2022/08/08 00:03:45;;;;;;;;;;;;;;;25.77;39.03;100118.72;4292339;33;20032;-80
2022/08/08 00:06:18;;;;;;;;;;;;;;;25.59;39.69;100114.19;4291788;33;20008;-80
2022/08/08 00:09:03;;;;;;;;;;;;;;;25.57;39.52;100118.72;4290379;33;20733;-79
2022/08/08 00:11:37;;;;;;;;;;;;;;;25.29;40.02;100114.53;4286834;33;20011;-79
2022/08/08 00:14:42;;;;;;;;;;;;;;;25.45;40.09;100114.75;4289247;33;20367;-79
2022/08/08 00:17:29;;;;;;;;;;;;;;;25.25;40.53;100108.50;4282697;33;20036;-80
2022/08/08 00:20:20;;;;;;;;;;;;;;;25.45;39.41;100114.75;4301500;33;19981;-79
2022/08/08 00:22:49;;;;;;;;;;;;;;;25.37;39.45;100112.44;4282341;33;21327;-80
2022/08/08 00:25:26;;;;;;;;;;;;;;;25.43;39.46;100100.69;4306022;33;19996;-80
2022/08/08 00:28:13;;;;;;;;;;;;;;;25.31;39.71;100095.94;4290635;33;20393;-80
2022/08/08 00:31:00;;;;;;;;;;;;;;;25.01;40.08;100091.72;4282733;33;20039;-79
2022/08/08 00:33:51;;;;;;;;;;;;;;;25.21;39.85;100084.84;4298356;33;19991;-79
2022/08/08 00:36:38;;;;;;;;;;;;;;;25.39;39.37;100081.41;4305530;33;20043;-80
2022/08/08 00:39:12;;;;;;;;;;;;;;;25.26;39.46;100080.19;4307574;33;19985;-79
2022/08/08 00:42:02;;;;;;;;;;;;;;;25.26;40.01;100077.56;4305365;33;20003;-80
2022/08/08 00:44:48;;;;;;;;;;;;;;;25.22;40.47;100087.41;4293419;33;19981;-79
2022/08/08 00:47:19;;;;;;;;;;;;;;;25.27;39.76;100095.16;4288900;33;20010;-79
2022/08/08 00:50:07;;;;;;;;;;;;;;;25.20;39.78;100093.69;4297390;33;19989;-79
2022/08/08 00:52:35;;;;;;;;;;;;;;;25.11;40.34;100088.72;4064941;33;5001971;-79
2022/08/08 00:55:12;;;;;;;;;;;;;;;25.16;39.99;100086.81;4263123;33;20356;-80
2022/08/08 00:57:52;;;;;;;;;;;;;;;25.25;40.13;100089.09;4282879;33;19996;-79
2022/08/08 01:00:25;;;;;;;;;;;;;;;24.98;41.02;100086.59;4277045;33;20006;-79
2022/08/08 01:02:58;;;;;;;;;;;;;;;25.06;40.34;100086.28;4269360;33;19985;-79
2022/08/08 01:06:04;;;;;;;;;;;;;;;25.16;39.30;100084.16;4266909;33;20426;-79
2022/08/08 01:08:50;;;;;;;;;;;;;;;25.40;38.33;100075.22;4268060;33;19981;-79
2022/08/08 01:11:28;;;;;;;;;;;;;;;25.01;40.08;100078.50;4268479;33;20426;-79
2022/08/08 01:14:06;;;;;;;;;;;;;;;25.09;39.96;100074.69;4260281;33;19986;-79
2022/08/08 01:16:58;;;;;;;;;;;;;;;25.11;40.13;100078.13;4268715;33;20033;-79
2022/08/08 01:19:43;;;;;;;;;;;;;;;25.06;40.90;100078.31;4269851;33;19985;-79
2022/08/08 01:22:47;;;;;;;;;;;;;;;25.16;39.74;100081.50;4277793;33;19988;-79
2022/08/08 01:25:25;;;;;;;;;;;;;;;24.82;41.16;100083.69;4282892;33;20039;-79
2022/08/08 01:28:15;;;;;;;;;;;;;;;25.07;40.38;100082.69;4280602;33;19985;-79
2022/08/08 01:31:02;;;;;;;;;;;;;;;24.95;41.00;100084.06;4271251;33;20947;-79
2022/08/08 01:33:52;;;;;;;;;;;;;;;25.01;40.60;100083.78;4262085;33;19989;-79
2022/08/08 01:36:38;;;;;;;;;;;;;;;24.96;40.65;100076.97;4270325;33;20245;-79
2022/08/08 01:39:20;;;;;;;;;;;;;;;24.96;40.89;100069.88;4265917;33;19989;-79
2022/08/08 01:42:13;;;;;;;;;;;;;;;25.02;40.86;100067.00;4268677;33;20065;-79
2022/08/08 01:44:50;;;;;;;;;;;;;;;24.99;40.96;100059.16;4275230;33;20007;-79
2022/08/08 01:47:34;;;;;;;;;;;;;;;24.77;41.87;100056.50;4266845;33;19985;-79
2022/08/08 01:50:25;;;;;;;;;;;;;;;24.68;41.61;100054.22;4269431;33;19991;-80
2022/08/08 01:53:15;;;;;;;;;;;;;;;24.76;41.48;100056.53;4288031;33;20015;-80
2022/08/08 01:56:21;;;;;;;;;;;;;;;25.04;40.95;100057.19;4285828;33;20334;-80
2022/08/08 01:58:57;;;;;;;;;;;;;;;24.96;41.15;100059.28;4282353;33;19985;-79
2022/08/08 02:01:48;;;;;;;;;;;;;;;25.02;40.28;100055.53;4286775;33;20028;-80
2022/08/08 02:04:34;;;;;;;;;;;;;;;25.11;39.72;100062.22;4296204;33;20028;-79
2022/08/08 02:07:04;;;;;;;;;;;;;;;25.06;40.18;100060.63;4306988;33;20007;-79
2022/08/08 02:09:43;;;;;;;;;;;;;;;25.03;40.87;100066.06;4294826;33;20048;-80
2022/08/08 02:12:32;;;;;;;;;;;;;;;25.11;39.78;100056.94;4304916;33;19995;-80
2022/08/08 02:15:08;;;;;;;;;;;;;;;24.95;40.28;100073.47;4305926;33;20029;-80
2022/08/08 02:18:08;;;;;;;;;;;;;;;24.58;40.97;100069.56;4296840;33;20041;-79
2022/08/08 02:20:43;;;;;;;;;;;;;;;24.62;41.02;100080.91;3836558;33;10010663;-78
2022/08/08 02:23:36;;;;;;;;;;;;;;;24.74;40.81;100076.94;4285335;33;20052;-79
2022/08/08 02:26:07;;;;;;;;;;;;;;;24.62;41.52;100085.34;4295103;33;19989;-79
2022/08/08 02:28:47;;;;;;;;;;;;;;;24.85;40.55;100087.97;4292023;33;20001;-79
2022/08/08 02:31:34;;;;;;;;;;;;;;;24.74;40.90;100087.53;4295822;33;19999;-80
2022/08/08 02:34:38;;;;;;;;;;;;;;;24.78;40.87;100097.06;4286250;33;20004;-79
2022/08/08 02:37:32;;;;;;;;;;;;;;;24.78;41.19;100097.06;4279246;33;20036;-79
2022/08/08 02:40:35;;;;;;;;;;;;;;;24.74;41.64;100095.47;4290606;33;19988;-79
2022/08/08 02:43:23;;;;;;;;;;;;;;;24.51;42.30;100094.56;4293755;33;19985;-79
2022/08/08 02:46:19;;;;;;;;;;;;;;;24.76;41.34;100093.63;4283613;33;20002;-79
2022/08/08 02:49:06;;;;;;;;;;;;;;;24.79;41.99;100098.78;4301856;33;19980;-79
2022/08/08 02:51:57;;;;;;;;;;;;;;;24.68;42.28;100093.06;4281620;33;20060;-79
2022/08/08 02:54:43;;;;;;;;;;;;;;;24.53;42.82;100084.75;4257234;33;813612;-79
2022/08/08 02:57:35;;;;;;;;;;;;;;;24.63;42.90;100097.66;4292410;33;20056;-79
2022/08/08 03:00:16;;;;;;;;;;;;;;;24.63;42.70;100092.34;4293296;33;19977;-79
2022/08/08 03:03:17;;;;;;;;;;;;;;;24.45;43.14;100094.78;4295180;33;20080;-79
2022/08/08 03:06:24;;;;;;;;;;;;;;;24.75;41.91;100102.47;4282010;33;19996;-80
2022/08/08 03:09:20;;;;;;;;;;;;;;;24.68;42.14;100116.88;4277484;33;19989;-79
2022/08/08 03:11:53;;;;;;;;;;;;;;;24.72;41.93;100107.91;4283704;33;20040;-79
2022/08/08 03:14:52;;;;;;;;;;;;;;;24.74;41.69;100096.34;4287636;33;20055;-79
2022/08/08 03:17:45;;;;;;;;;;;;;;;24.70;42.09;100109.75;4292547;33;19993;-79
2022/08/08 03:20:48;;;;;;;;;;;;;;;24.47;44.05;100114.09;4301532;33;20361;-79
2022/08/08 03:23:19;;;;;;;;;;;;;;;24.43;43.50;100115.13;4296712;33;19984;-79
2022/08/08 03:25:46;;;;;;;;;;;;;;;24.55;42.51;100112.03;4296639;33;20044;-78
2022/08/08 03:28:19;;;;;;;;;;;;;;;24.61;42.55;100103.03;4303380;33;20028;-79
2022/08/08 03:30:47;;;;;;;;;;;;;;;24.64;42.32;100108.19;4302085;33;19992;-78
2022/08/08 03:33:33;;;;;;;;;;;;;;;24.61;42.18;100099.50;4290902;33;20044;-78
2022/08/08 03:36:20;;;;;;;;;;;;;;;24.54;42.32;100105.03;4282180;33;20040;-78
2022/08/08 03:38:53;;;;;;;;;;;;;;;24.59;42.84;100110.12;4294318;33;19992;-78
2022/08/08 03:41:41;;;;;;;;;;;;;;;24.54;43.06;100105.03;4284745;33;19999;-78
2022/08/08 03:44:32;;;;;;;;;;;;;;;24.54;41.77;100096.25;4298890;33;19984;-77
2022/08/08 03:47:01;;;;;;;;;;;;;;;24.84;40.94;100094.19;4292723;33;19995;-78
2022/08/08 03:49:47;;;;;;;;;;;;;;;24.85;41.36;100103.84;4290633;33;20008;-78
2022/08/08 03:52:29;;;;;;;;;;;;;;;24.77;42.00;100112.09;4281862;33;19993;-78
2022/08/08 03:54:57;;;;;;;;;;;;;;;24.99;41.25;100116.59;4284369;33;19985;-77
2022/08/08 03:57:37;;;;;;;;;;;;;;;24.79;41.72;100114.69;4290552;33;20440;-78
2022/08/08 04:00:25;;;;;;;;;;;;;;;24.90;41.00;100095.75;4304940;33;20122;-79
2022/08/08 04:03:05;;;;;;;;;;;;;;;24.72;41.57;100102.59;4299095;33;20000;-78
2022/08/08 04:05:37;;;;;;;;;;;;;;;24.76;41.78;100110.38;4305717;33;20003;-79
2022/08/08 04:08:18;;;;;;;;;;;;;;;24.85;41.65;100113.59;4295346;33;20007;-77
2022/08/08 04:11:01;;;;;;;;;;;;;;;24.95;41.01;100110.53;4282441;33;20021;-78
2022/08/08 04:13:37;;;;;;;;;;;;;;;24.83;41.23;100116.31;4275498;33;20008;-79
2022/08/08 04:16:24;;;;;;;;;;;;;;;24.81;42.63;100118.13;4266216;33;19978;-78
2022/08/08 04:19:08;;;;;;;;;;;;;;;24.84;41.96;100115.37;4283639;33;19986;-78
2022/08/08 04:21:52;;;;;;;;;;;;;;;24.97;41.22;100113.97;4276145;33;20377;-78
2022/08/08 04:24:21;;;;;;;;;;;;;;;24.76;42.48;100128.91;4276829;33;19989;-78
2022/08/08 04:26:57;;;;;;;;;;;;;;;24.85;42.31;100132.97;4267244;33;19993;-79
2022/08/08 04:29:25;;;;;;;;;;;;;;;24.85;42.16;100135.63;4284207;33;20045;-78
2022/08/08 04:31:52;;;;;;;;;;;;;;;24.86;42.17;100132.09;4265739;33;19978;-79
2022/08/08 04:34:26;;;;;;;;;;;;;;;24.99;41.83;100138.63;4276613;33;20098;-78
2022/08/08 04:37:09;;;;;;;;;;;;;;;25.04;41.63;100141.09;4281976;33;20332;-79
2022/08/08 04:39:39;;;;;;;;;;;;;;;24.95;42.57;100136.13;4287295;33;20005;-79
2022/08/08 04:42:26;;;;;;;;;;;;;;;24.68;43.30;100138.06;4296975;33;20020;-78
2022/08/08 04:44:56;;;;;;;;;;;;;;;24.86;43.01;100137.38;4268183;33;19992;-79
2022/08/08 04:47:23;;;;;;;;;;;;;;;25.04;42.86;100141.09;4282279;33;19984;-79
2022/08/08 04:49:50;;;;;;;;;;;;;;;24.84;43.27;100133.91;4302822;33;20093;-79
2022/08/08 04:52:31;;;;;;;;;;;;;;;25.03;42.94;100144.66;4308689;33;20011;-80
2022/08/08 04:55:02;;;;;;;;;;;;;;;25.03;43.70;100150.81;4302764;33;20072;-81
2022/08/08 04:57:31;;;;;;;;;;;;;;;25.10;43.87;100150.59;4286682;33;19980;-81
2022/08/08 05:00:00;;;;;;;;;;;;;;;25.02;43.70;100149.09;4298344;33;20056;-80
2022/08/08 05:02:28;;;;;;;;;;;;;;;24.85;44.66;100151.53;4287680;33;20008;-80
2022/08/08 05:04:57;;;;;;;;;;;;;;;24.96;45.56;100159.06;4253786;33;20601;-80
2022/08/08 05:07:26;;;;;;;;;;;;;;;24.93;45.28;100160.06;4219487;33;20013;-82
2022/08/08 05:10:09;;;;;;;;;;;;;;;25.19;43.60;100155.56;4236141;33;20010;-83
2022/08/08 05:12:39;;;;;;;;;;;;;;;25.21;43.82;100151.09;4236057;33;19986;-86
2022/08/08 05:15:26;;;;;;;;;;;;;;;25.25;44.14;100150.88;4234457;33;19982;-85
2022/08/08 05:18:13;;;;;;;;;;;;;;;25.31;44.12;100155.09;4214427;33;19986;-80
2022/08/08 05:20:41;;;;;;;;;;;;;;;25.14;45.17;100154.88;4240662;33;20047;-86
2022/08/08 05:23:19;;;;;;;;;;;;;;;25.02;45.53;100156.19;4231250;33;20327;-83
2022/08/08 05:25:48;;;;;;;;;;;;;;;25.19;45.47;100155.56;4261529;33;20491;-83
2022/08/08 05:28:15;;;;;;;;;;;;;;;25.25;45.02;100155.31;4274427;33;19993;-83
2022/08/08 05:31:02;;;;;;;;;;;;;;;25.27;45.17;100158.75;4284936;33;19997;-82
2022/08/08 05:33:49;;;;;;;;;;;;;;;25.22;45.65;100161.59;4283178;33;20064;-82
2022/08/08 05:36:17;;;;;;;;;;;;;;;25.28;46.29;100165.81;4279196;33;20406;-81
2022/08/08 05:38:54;;;;;;;;;;;;;;;25.42;45.97;100163.47;4277703;33;19989;-81
2022/08/08 05:41:24;;;;;;;;;;;;;;;25.36;46.70;100158.41;4279284;33;20000;-80
2022/08/08 05:43:58;;;;;;;;;;;;;;;25.47;46.62;100166.81;4278598;33;20297;-81
2022/08/08 05:46:31;;;;;;;;;;;;;;;25.35;47.34;100161.97;4279397;33;20294;-80
2022/08/08 05:48:59;;;;;;;;;;;;;;;25.68;46.15;100158.87;4279955;33;20000;-80
2022/08/08 05:51:26;;;;;;;;;;;;;;;25.56;46.50;100164.69;4283726;33;19997;-79
2022/08/08 05:54:14;;;;;;;;;;;;;;;25.49;47.15;100164.97;4256104;33;20013;-82
2022/08/08 05:57:01;;;;;;;;;;;;;;;25.55;46.96;100171.78;4277383;33;20047;-81
2022/08/08 05:59:34;;;;;;;;;;;;;;;25.56;46.52;100165.56;4278676;33;19984;-81
2022/08/08 06:05:11;;;;;;;;;;;;;;;25.65;46.64;100151.06;4276804;33;20011;-81
2022/08/08 06:07:58;;;;;;;;;;;;;;;25.82;46.71;100151.28;4269006;33;20360;-81
2022/08/08 06:10:29;;;;;;;;;;;;;;;25.85;46.49;100152.94;4278485;33;20881;-81
2022/08/08 06:12:57;;;;;;;;;;;;;;;25.86;47.22;100158.16;4286379;33;19993;-82
2022/08/08 06:15:24;;;;;;;;;;;;;;;25.83;47.36;100163.59;4292907;33;19989;-82
2022/08/08 06:18:11;;;;;;;;;;;;;;;25.73;47.09;100167.53;4282147;33;19997;-82
2022/08/08 06:20:47;;;;;;;;;;;;;;;25.93;45.69;100172.87;4277642;33;20328;-82
2022/08/08 06:23:16;;;;;;;;;;;;;;;26.00;46.19;100169.97;4277780;33;20013;-81
2022/08/08 06:26:12;;;;;;;;;;;;;;;26.03;45.39;100169.84;4267694;33;19990;-82
2022/08/08 06:29:09;;;;;;;;;;;;;;;26.00;46.10;100164.66;1710336;33;10011064;-80
2022/08/08 06:32:02;;;;;;;;;;;;;;;26.17;45.60;100167.47;3655432;33;10000364;-82
2022/08/08 06:34:45;;;;;;;;;;;;;;;26.15;45.32;100164.88;4277519;33;20052;-81
2022/08/08 06:37:23;;;;;;;;;;;;;;;26.12;44.94;100158.84;4291560;33;20457;-81
2022/08/08 06:40:05;;;;;;;;;;;;;;;26.18;44.49;100158.59;4280606;33;19999;-80
2022/08/08 06:42:36;;;;;;;;;;;;;;;26.33;45.16;100168.53;4279018;33;19997;-82
2022/08/08 06:45:04;;;;;;;;;;;;;;;26.49;45.65;100173.22;4286166;33;19985;-81
2022/08/08 06:47:35;;;;;;;;;;;;;;;26.18;45.80;100177.16;4292687;33;20008;-81
2022/08/08 06:50:22;;;;;;;;;;;;;;;26.24;45.53;100174.25;4258253;33;20037;-80
2022/08/08 06:53:00;;;;;;;;;;;;;;;26.17;46.51;100183.41;4279020;33;20354;-81
2022/08/08 06:55:40;;;;;;;;;;;;;;;26.19;45.98;100181.53;4286959;33;20003;-80
2022/08/08 06:58:09;;;;;;;;;;;;;;;26.36;45.88;100179.03;4281909;33;20008;-81
2022/08/08 07:00:37;;;;;;;;;;;;;;;26.45;45.72;100172.41;4281754;33;20004;-82
2022/08/08 07:03:08;;;;;;;;;;;;;;;26.46;45.55;100178.63;4301607;33;19992;-80
2022/08/08 07:05:55;;;;;;;;;;;;;;;26.57;44.94;100181.69;4296427;33;19980;-81
2022/08/08 07:08:30;;;;;;;;;;;;;;;26.55;44.58;100178.25;4294937;33;20000;-81
2022/08/08 07:10:58;;;;;;;;;;;;;;;26.56;43.76;100174.66;4292526;33;20072;-82
2022/08/08 07:13:28;;;;;;;;;;;;;;;26.80;44.18;100172.66;4293556;33;20020;-82
2022/08/08 07:15:59;;;;;;;;;;;;;;;26.64;43.14;100172.50;4296875;33;20037;-82
2022/08/08 07:18:41;;;;;;;;;;;;;;;26.88;42.37;100171.41;4285209;33;19997;-81
2022/08/08 07:21:09;;;;;;;;;;;;;;;26.85;41.45;100165.38;4291467;33;20006;-82
2022/08/08 07:23:55;;;;;;;;;;;;;;;27.05;40.13;100167.94;4287203;33;20023;-80
2022/08/08 07:26:31;;;;;;;;;;;;;;;27.00;41.50;100174.44;4290838;33;19985;-80
2022/08/08 07:29:02;;;;;;;;;;;;;;;26.96;43.22;100178.12;4282212;33;20015;-80
2022/08/08 07:31:34;;;;;;;;;;;;;;;27.25;40.68;100183.00;4292163;33;20408;-79
2022/08/08 07:34:05;;;;;;;;;;;;;;;27.35;40.41;100186.94;4287528;33;19993;-83
2022/08/08 07:36:36;;;;;;;;;;;;;;;27.12;41.14;100190.66;4299738;33;19973;-80
2022/08/08 07:39:15;;;;;;;;;;;;;;;27.32;39.71;100186.22;4289142;33;20060;-80
2022/08/08 07:41:43;;;;;;;;;;;;;;;27.47;39.06;100179.28;4275137;33;19989;-81
2022/08/08 07:44:30;;;;;;;;;;;;;;;27.29;38.88;100192.56;4279823;33;19984;-79
2022/08/08 07:47:07;;;;;;;;;;;;;;;27.46;39.60;100204.16;4280266;33;20363;-80
2022/08/08 07:49:35;;;;;;;;;;;;;;;27.54;39.86;100199.38;4284624;33;20004;-78
2022/08/08 07:52:10;;;;;;;;;;;;;;;27.66;39.86;100201.41;4275409;33;19989;-78
2022/08/08 07:54:51;;;;;;;;;;;;;;;27.75;39.05;100195.63;4264250;33;20090;-78
2022/08/08 07:57:21;;;;;;;;;;;;;;;27.39;39.44;100203.59;4272653;33;19989;-79
2022/08/08 08:00:04;;;;;;;;;;;;;;;27.73;39.39;100208.16;4273685;33;20755;-77
2022/08/08 08:02:54;;;;;;;;;;;;;;;28.00;38.43;100210.41;4259596;33;20087;-78
2022/08/08 08:05:21;;;;;;;;;;;;;;;27.99;37.18;100208.69;4290922;33;20023;-79
2022/08/08 08:08:03;;;;;;;;;;;;;;;28.05;36.80;100208.41;4294524;33;20002;-80
2022/08/08 08:10:30;;;;;;;;;;;;;;;28.16;37.24;100210.50;4291232;33;20072;-78
2022/08/08 08:13:19;;;;;;;;;;;;;;;28.36;38.59;100202.34;4284177;33;19991;-79
2022/08/08 08:15:59;;;;;;;;;;;;;;;28.80;36.01;100203.66;4281449;33;20063;-77
2022/08/08 08:18:37;;;;;;;;;;;;;;;28.71;37.36;100202.31;4280053;33;19973;-78
2022/08/08 08:21:42;;;;;;;;;;;;;;;29.00;37.26;100202.56;4285438;33;20060;-78
2022/08/08 08:24:27;;;;;;;;;;;;;;;29.08;32.86;100206.56;4295837;33;19992;-78
2022/08/08 08:26:58;;;;;;;;;;;;;;;29.24;34.21;100203.91;4295503;33;19999;-77
2022/08/08 08:29:29;;;;;;;;;;;;;;;30.02;30.55;100202.13;4291161;33;20404;-79
2022/08/08 08:31:56;;;;;;;;;;;;;;;29.94;32.10;100201.75;4267436;33;20012;-81
2022/08/08 08:34:29;;;;;;;;;;;;;;;30.07;32.50;100207.22;4280270;33;20308;-77
2022/08/08 08:37:00;;;;;;;;;;;;;;;30.48;31.00;100202.09;4287849;33;19996;-77
2022/08/08 08:39:36;;;;;;;;;;;;;;;30.06;33.42;100206.34;4280481;33;19989;-80
2022/08/08 08:42:24;;;;;;;;;;;;;;;30.59;32.19;100215.66;4281653;33;20347;-78
2022/08/08 08:45:05;;;;;;;;;;;;;;;30.20;32.10;100223.41;4285648;33;20391;-80
2022/08/08 08:47:51;;;;;;;;;;;;;;;30.01;33.21;100227.13;4281729;33;20782;-81
2022/08/08 08:50:23;;;;;;;;;;;;;;;29.25;35.79;100234.09;4287158;33;19973;-79
2022/08/08 08:53:02;;;;;;;;;;;;;;;30.08;33.95;100225.78;4276194;33;20025;-81
2022/08/08 08:55:49;;;;;;;;;;;;;;;29.65;34.91;100216.78;4284275;33;20040;-80
2022/08/08 08:58:31;;;;;;;;;;;;;;;29.31;36.20;100220.44;4288980;33;19988;-79
2022/08/08 09:00:59;;;;;;;;;;;;;;;29.05;38.10;100221.88;4287795;33;19988;-79
2022/08/08 09:03:36;;;;;;;;;;;;;;;29.23;35.86;100225.31;4284109;33;20072;-78
2022/08/08 09:06:19;;;;;;;;;;;;;;;29.22;36.31;100223.59;4283301;33;19997;-78
2022/08/08 09:09:02;;;;;;;;;;;;;;;28.93;36.31;100223.34;4283605;33;20000;-79
2022/08/08 09:11:31;;;;;;;;;;;;;;;28.78;37.16;100230.41;4288159;33;19981;-81
2022/08/08 09:13:59;;;;;;;;;;;;;;;28.94;36.36;100225.97;4281417;33;20023;-78
2022/08/08 09:16:27;;;;;;;;;;;;;;;28.98;37.41;100232.84;4282983;33;19988;-80
2022/08/08 09:18:58;;;;;;;;;;;;;;;29.24;35.78;100227.06;4285123;33;20005;-83
2022/08/08 09:21:27;;;;;;;;;;;;;;;29.26;34.88;100230.50;4289092;33;20311;-82
2022/08/08 09:24:14;;;;;;;;;;;;;;;28.65;38.58;100240.81;4284602;33;20805;-83
2022/08/08 09:26:48;;;;;;;;;;;;;;;28.77;36.92;100244.63;4289624;33;20056;-84
2022/08/08 09:29:22;;;;;;;;;;;;;;;28.71;37.58;100240.47;4295898;33;19988;-86
2022/08/08 09:31:50;;;;;;;;;;;;;;;29.07;36.49;100231.53;4292005;33;19980;-82
2022/08/08 09:34:24;;;;;;;;;;;;;;;28.54;38.05;100226.34;4284564;33;20339;-82
2022/08/08 09:37:07;;;;;;;;;;;;;;;28.72;38.27;100231.56;4285702;33;20000;-81
2022/08/08 09:40:05;;;;;;;;;;;;;;;29.07;36.74;100226.19;4282840;33;19988;-81
2022/08/08 09:42:41;;;;;;;;;;;;;;;29.19;35.93;100225.50;4286486;33;19995;-82
2022/08/08 09:45:21;;;;;;;;;;;;;;;29.12;36.76;100224.09;4288175;33;20040;-79
2022/08/08 09:48:08;;;;;;;;;;;;;;;29.07;36.81;100223.53;4274745;33;20393;-81
2022/08/08 09:50:47;;;;;;;;;;;;;;;29.07;36.19;100215.53;4288206;33;19997;-80
2022/08/08 09:53:19;;;;;;;;;;;;;;;28.84;39.01;100210.53;4281255;33;20311;-80
2022/08/08 09:56:06;;;;;;;;;;;;;;;28.82;39.13;100220.44;4286170;33;20045;-81
2022/08/08 09:58:40;;;;;;;;;;;;;;;29.14;37.28;100211.56;4269182;33;19989;-83
2022/08/08 10:01:11;;;;;;;;;;;;;;;29.13;36.69;100208.97;4281388;33;20037;-82
2022/08/08 10:03:58;;;;;;;;;;;;;;;28.86;37.53;100206.84;4284238;33;20027;-81
2022/08/08 10:06:30;;;;;;;;;;;;;;;28.90;38.21;100210.19;4287513;33;20023;-86
2022/08/08 10:09:01;;;;;;;;;;;;;;;28.50;38.52;100205.19;4280618;33;20008;-86
2022/08/08 10:11:28;;;;;;;;;;;;;;;28.97;37.13;100214.25;4282133;33;19989;-82
2022/08/08 10:14:15;;;;;;;;;;;;;;;28.90;38.55;100207.53;4281556;33;20011;-81
2022/08/08 10:17:08;;;;;;;;;;;;;;;28.88;39.45;100210.28;4281210;33;19997;-82
2022/08/08 10:19:56;;;;;;;;;;;;;;;28.72;39.38;100226.25;4290163;33;20002;-85
2022/08/08 10:22:26;;;;;;;;;;;;;;;29.13;37.46;100224.97;4289330;33;19996;-81
2022/08/08 10:25:01;;;;;;;;;;;;;;;29.17;37.30;100223.87;4281521;33;19981;-80
2022/08/08 10:27:30;;;;;;;;;;;;;;;29.01;37.20;100221.19;4281232;33;20000;-81
2022/08/08 10:30:01;;;;;;;;;;;;;;;28.74;38.77;100219.00;4281778;33;20016;-81
2022/08/08 10:32:40;;;;;;;;;;;;;;;28.95;37.68;100218.81;4273447;33;19992;-80
2022/08/08 10:35:18;;;;;;;;;;;;;;;28.94;37.53;100214.41;4289955;33;20358;-80
2022/08/08 10:38:05;;;;;;;;;;;;;;;28.81;38.36;100202.69;4302708;33;19997;-80
2022/08/08 10:40:36;;;;;;;;;;;;;;;28.99;36.77;100196.37;4292250;33;19988;-80
2022/08/08 10:43:06;;;;;;;;;;;;;;;29.06;37.25;100200.44;4286401;33;19989;-82
2022/08/08 10:45:42;;;;;;;;;;;;;;;29.05;37.41;100196.06;4299706;33;19991;-80
2022/08/08 10:48:33;;;;;;;;;;;;;;;29.08;37.34;100190.56;4284987;33;20289;-80
2022/08/08 10:51:21;;;;;;;;;;;;;;;29.28;37.12;100201.94;4293758;33;20018;-80
2022/08/08 10:53:55;;;;;;;;;;;;;;;29.02;38.11;100214.03;4289685;33;20299;-82
2022/08/08 10:56:26;;;;;;;;;;;;;;;28.74;39.29;100229.66;4290720;33;19976;-81
2022/08/08 10:59:02;;;;;;;;;;;;;;;28.79;39.27;100220.59;4300659;33;19989;-80
2022/08/08 11:01:30;;;;;;;;;;;;;;;28.42;41.18;100233.16;4299432;33;19988;-80
2022/08/08 11:04:00;;;;;;;;;;;;;;;28.80;40.70;100236.47;4284252;33;19985;-82
2022/08/08 11:06:30;;;;;;;;;;;;;;;28.80;42.44;100232.97;4285194;33;20315;-80
2022/08/08 11:09:04;;;;;;;;;;;;;;;29.22;40.85;100220.94;4279258;33;20709;-82
2022/08/08 11:11:45;;;;;;;;;;;;;;;29.30;40.37;100221.38;4288296;33;20052;-80
2022/08/08 11:14:32;;;;;;;;;;;;;;;29.20;41.34;100227.22;4284218;33;19988;-80
2022/08/08 11:17:02;;;;;;;;;;;;;;;28.65;41.93;100224.81;4291375;33;19980;-79
2022/08/08 11:19:29;;;;;;;;;;;;;;;28.70;41.44;100222.78;4286546;33;19988;-80
2022/08/08 11:21:59;;;;;;;;;;;;;;;28.49;42.75;100213.25;4307314;33;20338;-81
2022/08/08 11:24:30;;;;;;;;;;;;;;;29.05;41.36;100214.72;4279942;33;19989;-81
2022/08/08 11:27:01;;;;;;;;;;;;;;;29.08;41.39;100213.72;4283979;33;20003;-80
2022/08/08 11:29:36;;;;;;;;;;;;;;;28.85;41.38;100214.94;4300929;33;19989;-80
2022/08/08 11:32:24;;;;;;;;;;;;;;;28.39;43.25;100218.16;4287528;33;19996;-81
2022/08/08 11:35:05;;;;;;;;;;;;;;;28.90;42.09;100212.84;4138845;33;5090042;-80
2022/08/08 11:37:51;;;;;;;;;;;;;;;28.68;43.89;100214.00;4288474;33;20082;-80
2022/08/08 11:40:38;;;;;;;;;;;;;;;29.02;42.57;100212.25;4281470;33;20016;-80
2022/08/08 11:43:09;;;;;;;;;;;;;;;29.03;42.31;100213.94;4292603;33;20040;-81
2022/08/08 11:45:39;;;;;;;;;;;;;;;29.02;42.51;100222.91;4285029;33;20401;-81
2022/08/08 11:48:26;;;;;;;;;;;;;;;28.36;45.25;100228.13;4297710;33;20533;-79
2022/08/08 11:50:57;;;;;;;;;;;;;;;28.67;44.03;100225.62;4294444;33;20033;-81
2022/08/08 11:53:25;;;;;;;;;;;;;;;28.70;44.21;100228.13;4288688;33;20009;-80
2022/08/08 11:55:52;;;;;;;;;;;;;;;28.15;45.86;100230.94;4290069;33;20846;-80
2022/08/08 11:58:30;;;;;;;;;;;;;;;28.28;45.59;100232.03;4280049;33;20032;-80
2022/08/08 12:00:57;;;;;;;;;;;;;;;27.97;46.33;100234.53;4298713;33;19996;-80
2022/08/08 12:03:27;;;;;;;;;;;;;;;28.16;45.71;100237.97;4283097;33;20013;-80
2022/08/08 12:05:56;;;;;;;;;;;;;;;28.42;44.73;100243.81;4300923;33;20003;-80
2022/08/08 12:08:29;;;;;;;;;;;;;;;28.15;45.00;100244.25;4287438;33;20319;-79
2022/08/08 12:10:58;;;;;;;;;;;;;;;27.85;46.92;100245.75;4290541;33;20008;-80
2022/08/08 12:13:26;;;;;;;;;;;;;;;27.93;46.73;100246.25;4288451;33;20064;-80
2022/08/08 12:16:15;;;;;;;;;;;;;;;27.55;47.95;100246.28;4284893;33;20475;-82
2022/08/08 12:18:45;;;;;;;;;;;;;;;27.91;46.67;100241.00;4285508;33;19984;-80
2022/08/08 12:21:18;;;;;;;;;;;;;;;28.16;45.34;100245.97;4266127;33;19996;-81
2022/08/08 12:24:22;;;;;;;;;;;;;;;28.25;45.22;100245.50;4284186;33;20359;-79
2022/08/08 12:26:54;;;;;;;;;;;;;;;28.01;45.50;100233.41;4288016;33;20060;-80
2022/08/08 12:29:30;;;;;;;;;;;;;;;27.85;44.84;100235.12;4299976;33;19995;-80
2022/08/08 12:32:11;;;;;;;;;;;;;;;27.69;46.17;100238.50;4291887;33;19997;-81
2022/08/08 12:34:49;;;;;;;;;;;;;;;27.50;46.61;100232.34;4292357;33;20048;-80
2022/08/08 12:37:25;;;;;;;;;;;;;;;27.72;45.56;100241.00;4292217;33;20424;-81
2022/08/08 12:40:15;;;;;;;;;;;;;;;27.87;44.89;100242.09;4299908;33;19972;-81
2022/08/08 12:42:50;;;;;;;;;;;;;;;27.87;45.20;100241.25;4287582;33;20004;-81
2022/08/08 12:45:17;;;;;;;;;;;;;;;27.62;46.30;100249.50;4290415;33;19993;-81
2022/08/08 12:48:06;;;;;;;;;;;;;;;27.91;45.41;100242.81;4288522;33;20001;-81
2022/08/08 12:50:55;;;;;;;;;;;;;;;27.94;45.29;100247.97;4288156;33;20375;-80
2022/08/08 12:53:28;;;;;;;;;;;;;;;27.75;45.60;100259.47;4290892;33;20023;-81
2022/08/08 12:56:04;;;;;;;;;;;;;;;27.69;46.06;100267.75;4285286;33;20033;-80
2022/08/08 12:58:51;;;;;;;;;;;;;;;27.79;45.85;100263.78;4286798;33;19985;-80
2022/08/08 13:01:31;;;;;;;;;;;;;;;27.79;46.36;100261.09;4289749;33;19992;-80
2022/08/08 13:04:15;;;;;;;;;;;;;;;27.99;45.27;100251.28;4286449;33;20011;-80
2022/08/08 13:06:52;;;;;;;;;;;;;;;27.95;45.28;100249.69;4286558;33;20064;-81
2022/08/08 13:09:29;;;;;;;;;;;;;;;28.01;45.13;100250.25;4290107;33;20397;-81
2022/08/08 13:11:59;;;;;;;;;;;;;;;28.08;44.14;100256.16;4288400;33;19984;-80
2022/08/08 13:14:49;;;;;;;;;;;;;;;28.16;43.37;100253.94;4286811;33;19993;-80
2022/08/08 13:17:26;;;;;;;;;;;;;;;27.96;43.76;100256.75;4288591;33;20000;-80
2022/08/08 13:20:15;;;;;;;;;;;;;;;27.97;42.70;100253.16;4279742;33;20010;-81
2022/08/08 13:22:49;;;;;;;;;;;;;;;27.90;43.19;100251.75;4286546;33;19999;-81
2022/08/08 13:25:44;;;;;;;;;;;;;;;28.08;42.82;100250.84;4279266;33;20013;-81
2022/08/08 13:28:28;;;;;;;;;;;;;;;28.41;41.75;100252.75;4299911;33;19992;-82
2022/08/08 13:30:59;;;;;;;;;;;;;;;28.14;42.80;100257.63;4288141;33;20000;-81
2022/08/08 13:33:30;;;;;;;;;;;;;;;28.00;42.67;100248.53;4288308;33;20035;-80
2022/08/08 13:36:09;;;;;;;;;;;;;;;27.80;43.29;100241.53;4296056;33;20001;-80
2022/08/08 13:38:37;;;;;;;;;;;;;;;27.88;42.63;100233.16;4301902;33;20348;-81